Time;durP1;ratioP1;P1;durP2;ratioP2;P2;SDS_P1;SDS_P2;PMS_P1;PMS_P2;Temp;Humidity;BMP_temperature;BMP_pressure;BME280_temperature;BME280_humidity;BME280_pressure;Samples;Min_cycle;Max_cycle;Signal;HPM_P1;HPM_P2
2023/04/11 00:01:16;;;;;;;1.80;0.47;;;5.20;99.90;;;;;;5107769;28;20044;-55
2023/04/11 00:03:44;;;;;;;1.95;0.40;;;5.20;99.90;;;;;;5108008;28;20051;-57
2023/04/11 00:06:12;;;;;;;4.30;0.70;;;5.20;99.90;;;;;;5090022;28;20061;-55
2023/04/11 00:08:39;;;;;;;5.60;0.47;;;5.20;99.90;;;;;;5108477;28;20036;-57
2023/04/11 00:11:07;;;;;;;2.22;0.63;;;5.20;99.90;;;;;;5093634;28;20403;-55
2023/04/11 00:13:36;;;;;;;7.60;0.75;;;5.10;99.90;;;;;;5111221;28;20040;-56
2023/04/11 00:16:04;;;;;;;1.27;0.40;;;5.10;99.90;;;;;;5111803;28;20039;-57
2023/04/11 00:18:34;;;;;;;1.20;0.35;;;5.10;99.90;;;;;;5103823;28;20040;-56
2023/04/11 00:21:09;;;;;;;5.45;0.85;;;5.10;99.90;;;;;;5091857;28;20044;-56
2023/04/11 00:23:36;;;;;;;4.72;1.23;;;5.20;99.90;;;;;;5094595;28;20519;-56
2023/04/11 00:26:04;;;;;;;3.30;0.68;;;5.20;99.90;;;;;;5111545;28;20039;-56
2023/04/11 00:28:34;;;;;;;13.00;1.45;;;5.30;99.90;;;;;;5111131;28;20058;-57
2023/04/11 00:31:02;;;;;;;3.97;0.93;;;5.30;99.90;;;;;;5111812;28;20047;-57
2023/04/11 00:33:30;;;;;;;4.65;1.00;;;5.30;99.90;;;;;;5092126;28;20051;-57
2023/04/11 00:35:58;;;;;;;1.52;0.45;;;5.40;99.90;;;;;;5110491;28;20052;-55
2023/04/11 00:38:25;;;;;;;11.50;1.02;;;5.40;99.90;;;;;;5069420;28;20553;-56
2023/04/11 00:40:53;;;;;;;5.38;0.90;;;5.40;99.90;;;;;;5091442;28;20056;-55
2023/04/11 00:43:21;;;;;;;5.45;0.98;;;5.40;99.90;;;;;;5105662;28;20047;-56
2023/04/11 00:45:50;;;;;;;14.32;1.17;;;5.60;99.90;;;;;;5111188;28;20051;-57
2023/04/11 00:48:18;;;;;;;6.97;0.77;;;5.60;99.90;;;;;;5091439;28;20368;-57
2023/04/11 00:50:45;;;;;;;6.80;0.93;;;5.70;99.90;;;;;;5111233;28;20054;-55
2023/04/11 00:53:17;;;;;;;7.55;1.23;;;5.70;99.90;;;;;;5111523;28;20063;-56
2023/04/11 00:55:45;;;;;;;6.40;0.60;;;5.60;99.90;;;;;;5111293;28;20402;-56
2023/04/11 00:58:15;;;;;;;3.70;0.80;;;5.70;99.90;;;;;;5092235;28;20048;-55
2023/04/11 01:00:43;;;;;;;;;;;5.70;99.90;;;;;;5102875;28;20047;-56
2023/04/11 01:03:11;;;;;;;8.80;0.77;;;5.80;99.90;;;;;;5092366;28;20286;-55
2023/04/11 01:05:40;;;;;;;0.95;0.50;;;5.90;99.90;;;;;;5106644;28;20074;-56
2023/04/11 01:08:08;;;;;;;4.07;0.70;;;5.90;99.90;;;;;;5091673;28;20047;-57
2023/04/11 01:10:37;;;;;;;12.38;0.93;;;5.90;99.90;;;;;;5110837;28;20525;-56
2023/04/11 01:13:05;;;;;;;4.55;0.77;;;5.90;99.90;;;;;;5066193;28;20391;-56
2023/04/11 01:15:33;;;;;;;4.00;0.85;;;5.90;99.90;;;;;;5089362;28;20044;-57
2023/04/11 01:18:01;;;;;;;10.77;1.05;;;5.90;99.90;;;;;;5090303;28;20048;-56
2023/04/11 01:20:30;;;;;;;8.10;1.25;;;5.90;99.90;;;;;;5090055;28;20048;-55
2023/04/11 01:23:01;;;;;;;5.63;0.98;;;5.80;99.90;;;;;;5078043;28;20047;-56
2023/04/11 01:25:32;;;;;;;4.97;0.88;;;5.70;99.90;;;;;;5072492;28;20040;-55
2023/04/11 01:28:00;;;;;;;8.50;0.68;;;5.70;99.90;;;;;;5075378;28;20479;-56
2023/04/11 01:30:28;;;;;;;2.70;1.00;;;5.60;99.90;;;;;;5109028;28;20052;-55
2023/04/11 01:32:56;;;;;;;3.78;1.27;;;5.50;99.90;;;;;;5110824;28;20403;-56
2023/04/11 01:35:23;;;;;;;5.63;1.33;;;5.50;99.90;;;;;;5112998;28;20770;-57
2023/04/11 01:37:51;;;;;;;6.50;0.68;;;5.40;99.90;;;;;;5094848;28;20039;-57
2023/04/11 01:40:20;;;;;;;4.95;0.98;;;5.40;99.90;;;;;;5095316;28;20046;-57
2023/04/11 01:42:48;;;;;;;7.60;0.82;;;5.30;99.90;;;;;;5088767;28;20040;-56
2023/04/11 01:45:16;;;;;;;3.63;0.90;;;5.30;99.90;;;;;;5074852;28;20051;-57
2023/04/11 01:47:47;;;;;;;2.63;0.70;;;5.30;99.90;;;;;;5112330;28;20047;-54
2023/04/11 01:50:17;;;;;;;11.50;1.52;;;5.20;99.90;;;;;;5112615;28;20380;-55
2023/04/11 01:52:51;;;;;;;8.10;1.02;;;5.20;99.90;;;;;;5112137;28;20035;-57
2023/04/11 01:55:19;;;;;;;3.67;0.63;;;5.10;99.90;;;;;;5113448;28;20494;-56
2023/04/11 01:57:47;;;;;;;2.40;0.43;;;5.10;99.90;;;;;;5112758;28;20040;-56
2023/04/11 02:00:15;;;;;;;6.97;1.08;;;5.00;99.90;;;;;;5102136;28;20063;-58
2023/04/11 02:02:42;;;;;;;3.97;0.55;;;5.00;99.90;;;;;;5113393;28;20047;-58
2023/04/11 02:05:10;;;;;;;4.25;0.90;;;5.00;99.90;;;;;;5095163;28;20047;-56
2023/04/11 02:07:38;;;;;;;6.72;1.05;;;5.00;99.90;;;;;;5095105;28;20051;-55
2023/04/11 02:10:06;;;;;;;13.27;1.10;;;4.90;99.90;;;;;;5111904;28;20198;-56
2023/04/11 02:12:34;;;;;;;6.88;1.50;;;4.90;99.90;;;;;;5112903;28;20051;-57
2023/04/11 02:15:01;;;;;;;16.08;1.80;;;4.90;99.90;;;;;;5094687;28;20047;-56
2023/04/11 02:17:29;;;;;;;4.10;0.88;;;4.90;99.90;;;;;;5101185;28;20069;-57
2023/04/11 02:19:57;;;;;;;6.00;0.95;;;4.90;99.90;;;;;;5113044;28;20043;-56
2023/04/11 02:22:25;;;;;;;7.10;0.55;;;4.90;99.90;;;;;;5112965;28;20380;-56
2023/04/11 02:24:52;;;;;;;9.15;0.98;;;5.00;99.90;;;;;;5112972;28;20063;-56
2023/04/11 02:27:22;;;;;;;8.40;2.92;;;4.90;99.90;;;;;;5082479;28;20047;-56
2023/04/11 02:29:51;;;;;;;9.85;0.85;;;;;;;;;;5092327;28;20048;-56
2023/04/11 02:32:19;;;;;;;6.53;1.20;;;5.10;99.90;;;;;;5092014;28;20055;-56
2023/04/11 02:34:49;;;;;;;8.43;1.17;;;5.00;99.90;;;;;;5110304;28;20387;-56
2023/04/11 02:37:16;;;;;;;9.00;1.42;;;5.10;99.90;;;;;;5112530;28;20047;-56
2023/04/11 02:39:44;;;;;;;9.60;1.20;;;5.10;99.90;;;;;;5094577;28;20044;-56
2023/04/11 02:42:12;;;;;;;11.30;0.80;;;5.10;99.90;;;;;;5111328;28;20039;-56
2023/04/11 02:44:39;;;;;;;2.13;0.90;;;5.10;99.90;;;;;;5112451;28;20055;-56
2023/04/11 02:47:07;;;;;;;5.28;1.23;;;5.10;99.90;;;;;;5112396;28;20052;-55
2023/04/11 02:49:35;;;;;;;10.02;1.05;;;5.10;99.90;;;;;;5094333;28;20044;-56
2023/04/11 02:52:04;;;;;;;6.53;0.63;;;5.10;99.90;;;;;;5112444;28;20039;-56
2023/04/11 02:54:31;;;;;;;8.73;0.93;;;5.10;99.90;;;;;;5112392;28;20040;-55
2023/04/11 02:57:01;;;;;;;6.20;1.10;;;5.10;99.90;;;;;;5094388;28;20039;-56
2023/04/11 02:59:29;;;;;;;6.07;0.73;;;5.10;99.90;;;;;;5092917;28;20043;-55
2023/04/11 03:02:00;;;;;;;5.22;1.10;;;5.10;99.90;;;;;;5109665;28;20051;-55
2023/04/11 03:04:29;;;;;;;3.72;1.02;;;5.00;99.90;;;;;;5112248;28;20051;-55
2023/04/11 03:07:11;;;;;;;5.97;0.73;;;5.00;99.90;;;;;;5094310;28;20408;-55
2023/04/11 03:09:39;;;;;;;5.97;0.93;;;5.00;99.90;;;;;;5093667;28;20047;-55
2023/04/11 03:12:07;;;;;;;3.92;0.80;;;5.00;99.90;;;;;;5093231;28;20055;-56
2023/04/11 03:14:41;;;;;;;7.53;1.02;;;5.00;99.90;;;;;;5092638;28;20036;-56
2023/04/11 03:17:09;;;;;;;5.07;0.90;;;5.00;99.90;;;;;;5093916;28;20510;-57
2023/04/11 03:19:36;;;;;;;7.72;1.30;;;5.00;99.90;;;;;;5093845;28;20054;-56
2023/04/11 03:22:04;;;;;;;5.32;0.73;;;5.00;99.90;;;;;;5093879;28;20050;-57
2023/04/11 03:24:32;;;;;;;6.63;0.45;;;5.00;99.90;;;;;;5093870;28;20042;-56
2023/04/11 03:27:00;;;;;;;6.10;1.15;;;5.00;99.90;;;;;;5093830;28;20375;-56
2023/04/11 03:29:29;;;;;;;7.33;0.87;;;4.90;99.90;;;;;;5084612;28;20040;-58
2023/04/11 03:32:07;;;;;;;5.65;1.00;;;4.90;99.90;;;;;;5100748;28;20055;-57
2023/04/11 03:34:36;;;;;;;5.18;0.57;;;4.90;99.90;;;;;;5075609;28;20048;-57
2023/04/11 03:37:07;;;;;;;5.07;0.88;;;4.80;99.90;;;;;;5093688;28;20059;-56
2023/04/11 03:39:36;;;;;;;6.60;0.82;;;4.90;99.90;;;;;;5110463;28;20048;-57
2023/04/11 03:42:04;;;;;;;4.95;1.25;;;4.80;99.90;;;;;;5093721;28;20044;-57
2023/04/11 03:44:32;;;;;;;10.82;1.58;;;4.80;99.90;;;;;;5112525;28;20035;-56
2023/04/11 03:47:01;;;;;;;5.80;0.90;;;4.80;99.90;;;;;;5097808;28;20040;-56
2023/04/11 03:49:35;;;;;;;10.63;0.90;;;4.80;99.90;;;;;;5096273;28;20069;-58
2023/04/11 03:52:04;;;;;;;9.07;1.33;;;4.80;99.90;;;;;;5097596;28;20483;-58
2023/04/11 03:54:32;;;;;;;4.55;0.77;;;4.80;99.90;;;;;;5097786;28;20048;-56
2023/04/11 03:57:00;;;;;;;6.90;1.08;;;4.80;99.90;;;;;;5115651;28;20040;-58
2023/04/11 03:59:29;;;;;;;5.68;0.70;;;4.80;99.90;;;;;;5096938;28;20050;-58
2023/04/11 04:02:06;;;;;;;6.25;0.95;;;4.80;99.90;;;;;;5095559;28;20039;-58
2023/04/11 04:04:37;;;;;;;6.95;0.80;;;4.80;99.90;;;;;;5114238;28;20044;-58
2023/04/11 04:07:22;;;;;;;13.05;1.35;;;4.90;99.90;;;;;;5097435;28;20043;-57
2023/04/11 04:09:54;;;;;;;4.47;1.10;;;4.80;99.90;;;;;;5114212;28;20035;-57
2023/04/11 04:12:22;;;;;;;10.40;1.17;;;4.80;99.90;;;;;;5097235;28;20036;-59
2023/04/11 04:15:13;;;;;;;2.58;0.47;;;4.80;99.90;;;;;;5114808;28;20060;-58
2023/04/11 04:17:43;;;;;;;5.05;0.60;;;4.70;99.90;;;;;;5094346;28;20054;-58
2023/04/11 04:20:17;;;;;;;7.95;1.38;;;4.80;99.90;;;;;;5077354;28;20044;-56
2023/04/11 04:22:52;;;;;;;3.00;0.60;;;4.80;99.90;;;;;;5076729;28;20039;-58
2023/04/11 04:25:27;;;;;;;5.20;0.85;;;4.80;99.90;;;;;;5076677;28;20065;-58
2023/04/11 04:27:56;;;;;;;10.73;0.80;;;4.70;99.90;;;;;;5093528;28;20048;-59
2023/04/11 04:30:27;;;;;;;15.52;1.23;;;4.70;99.90;;;;;;5076201;28;20050;-58
2023/04/11 04:33:10;;;;;;;6.93;0.80;;;4.70;99.90;;;;;;5076270;28;20377;-58
2023/04/11 04:35:42;;;;;;;3.47;0.68;;;4.70;99.90;;;;;;5105508;28;20071;-58
2023/04/11 04:38:16;;;;;;;8.15;0.60;;;4.60;99.90;;;;;;5114014;28;20043;-58
2023/04/11 04:40:48;;;;;;;2.80;0.57;;;4.60;99.90;;;;;;5113879;28;20505;-57
2023/04/11 04:43:22;;;;;;;10.60;1.23;;;4.50;99.90;;;;;;5097362;28;20040;-57
2023/04/11 04:46:15;;;;;;;6.40;1.08;;;4.50;99.90;;;;;;5076272;28;20616;-58
2023/04/11 04:48:51;;;;;;;3.88;1.00;;;4.40;99.90;;;;;;5073344;28;20438;-56
2023/04/11 04:51:20;;;;;;;10.88;2.22;;;4.40;99.90;;;;;;5071832;28;20059;-56
2023/04/11 04:53:48;;;;;;;2.10;0.52;;;4.40;99.90;;;;;;5090541;28;20400;-58
2023/04/11 04:56:16;;;;;;;6.93;1.02;;;4.30;99.90;;;;;;5088330;28;20308;-56
2023/04/11 04:58:47;;;;;;;10.93;0.82;;;4.30;99.90;;;;;;5105051;28;20052;-56
2023/04/11 05:01:17;;;;;;;11.50;1.38;;;4.30;99.90;;;;;;5089642;28;20410;-56
2023/04/11 05:03:49;;;;;;;7.30;1.67;;;4.20;99.90;;;;;;5075525;28;20047;-55
2023/04/11 05:06:30;;;;;;;9.82;1.23;;;4.20;99.90;;;;;;5087301;28;20054;-57
2023/04/11 05:09:01;;;;;;;15.43;1.45;;;4.20;99.90;;;;;;5107425;28;20117;-56
2023/04/11 05:11:29;;;;;;;11.23;1.15;;;4.20;99.90;;;;;;5089360;28;20048;-56
2023/04/11 05:13:57;;;;;;;6.28;0.90;;;;;;;;;;5084345;28;20067;-57
2023/04/11 05:16:27;;;;;;;9.05;1.08;;;4.10;99.90;;;;;;5089586;28;20052;-55
2023/04/11 05:18:59;;;;;;;4.70;0.60;;;4.00;99.90;;;;;;5084916;28;20043;-55
2023/04/11 05:21:27;;;;;;;7.13;1.23;;;4.00;99.90;;;;;;5090815;28;20047;-56
2023/04/11 05:23:55;;;;;;;8.70;1.00;;;4.00;99.90;;;;;;5061089;28;20056;-56
2023/04/11 05:26:24;;;;;;;8.88;1.08;;;4.00;99.90;;;;;;5090988;28;20518;-56
2023/04/11 05:28:52;;;;;;;6.93;1.20;;;4.00;99.90;;;;;;5072412;28;20048;-57
2023/04/11 05:31:24;;;;;;;10.10;1.50;;;4.00;99.90;;;;;;5075381;28;20043;-56
2023/04/11 05:33:52;;;;;;;7.03;1.73;;;3.90;99.90;;;;;;5102595;28;20295;-56
2023/04/11 05:36:20;;;;;;;10.40;1.10;;;3.90;99.90;;;;;;5088465;28;20048;-57
2023/04/11 05:38:48;;;;;;;12.02;1.05;;;4.00;99.90;;;;;;5105067;28;20043;-56
2023/04/11 05:41:15;;;;;;;12.68;1.98;;;4.00;99.90;;;;;;5107643;28;20039;-56
2023/04/11 05:43:43;;;;;;;5.32;1.70;;;3.90;99.90;;;;;;5081938;28;20039;-56
2023/04/11 05:46:11;;;;;;;19.52;1.23;;;4.00;99.90;;;;;;5088423;28;20055;-56
2023/04/11 05:48:40;;;;;;;6.35;1.45;;;4.00;99.90;;;;;;5077827;28;20043;-56
2023/04/11 05:51:09;;;;;;;10.40;1.83;;;4.00;99.90;;;;;;5089316;28;20042;-56
2023/04/11 05:53:36;;;;;;;7.13;0.80;;;4.00;99.90;;;;;;5091554;28;20054;-57
2023/04/11 05:56:05;;;;;;;9.00;1.05;;;3.90;99.90;;;;;;5091992;28;20058;-56
2023/04/11 05:58:35;;;;;;;10.32;1.40;;;3.90;99.90;;;;;;5108487;28;20047;-56
2023/04/11 06:01:02;;;;;;;7.95;1.48;;;3.80;99.90;;;;;;5091351;28;20047;-56
2023/04/11 06:03:30;;;;;;;10.10;1.52;;;3.80;99.90;;;;;;5087860;28;20070;-56
2023/04/11 06:05:59;;;;;;;11.15;1.70;;;3.90;99.90;;;;;;5102342;28;20419;-56
2023/04/11 06:08:27;;;;;;;7.93;1.27;;;3.80;99.90;;;;;;5109284;28;20044;-56
2023/04/11 06:10:57;;;;;;;10.32;1.38;;;3.90;99.90;;;;;;5109838;28;20040;-55
2023/04/11 06:13:25;;;;;;;9.85;0.95;;;4.00;99.90;;;;;;5109510;28;20503;-56
2023/04/11 06:15:52;;;;;;;10.05;1.30;;;4.00;99.90;;;;;;5091613;28;20051;-56
2023/04/11 06:18:20;;;;;;;12.77;2.22;;;1.20;99.90;;;;;;5108899;28;20035;-57
2023/04/11 06:20:48;;;;;;;3.80;0.88;;;4.00;99.90;;;;;;5104096;28;20561;-58
2023/04/11 06:23:16;;;;;;;17.95;1.38;;;4.20;99.90;;;;;;5100682;28;20043;-59
2023/04/11 06:25:43;;;;;;;8.57;1.20;;;4.20;99.90;;;;;;5109377;28;20044;-57
2023/04/11 06:28:11;;;;;;;8.27;1.25;;;4.20;99.90;;;;;;5109111;28;20498;-58
2023/04/11 06:30:39;;;;;;;7.35;1.77;;;4.30;99.90;;;;;;5109183;28;20050;-58
2023/04/11 06:33:07;;;;;;;11.82;0.93;;;4.40;99.90;;;;;;5108276;28;20055;-56
2023/04/11 06:35:35;;;;;;;13.27;1.80;;;4.50;99.90;;;;;;5091180;28;20055;-58
2023/04/11 06:38:02;;;;;;;13.82;1.55;;;4.50;99.90;;;;;;5108920;28;20572;-56
2023/04/11 06:40:30;;;;;;;14.23;1.35;;;4.60;99.90;;;;;;5089252;28;20058;-57
2023/04/11 06:42:59;;;;;;;8.60;1.20;;;4.60;99.90;;;;;;5087413;28;20052;-56
2023/04/11 06:45:27;;;;;;;6.70;1.60;;;4.80;99.90;;;;;;5088063;28;20391;-56
2023/04/11 06:47:55;;;;;;;6.03;0.70;;;4.70;99.90;;;;;;5092860;28;20506;-57
2023/04/11 06:50:25;;;;;;;12.65;1.70;;;4.80;99.90;;;;;;5105164;28;20231;-57
2023/04/11 06:52:53;;;;;;;9.77;1.33;;;4.80;99.90;;;;;;5108565;28;20054;-57
2023/04/11 06:55:21;;;;;;;13.13;1.27;;;4.90;99.90;;;;;;5089462;28;20043;-58
2023/04/11 06:57:49;;;;;;;11.45;1.60;;;4.90;99.90;;;;;;5108646;28;20044;-59
2023/04/11 07:00:17;;;;;;;9.27;1.73;;;5.00;99.90;;;;;;5104995;28;20043;-58
2023/04/11 07:02:45;;;;;;;7.38;1.15;;;5.10;99.90;;;;;;5104591;28;20051;-59
2023/04/11 07:05:14;;;;;;;14.57;2.03;;;5.10;99.90;;;;;;5104736;28;20487;-58
2023/04/11 07:07:41;;;;;;;5.85;1.52;;;5.20;99.90;;;;;;5106925;28;20044;-59
2023/04/11 07:10:09;;;;;;;16.67;1.80;;;5.20;99.90;;;;;;5108874;28;20063;-57
2023/04/11 07:12:37;;;;;;;11.82;1.25;;;5.30;99.90;;;;;;5090133;28;20059;-58
2023/04/11 07:15:05;;;;;;;21.27;2.55;;;5.60;99.90;;;;;;5107951;28;20051;-58
2023/04/11 07:17:32;;;;;;;12.32;1.30;;;5.40;99.90;;;;;;5107302;28;20539;-57
2023/04/11 07:20:00;;;;;;;6.50;1.05;;;5.50;99.90;;;;;;5107935;28;20044;-57
2023/04/11 07:22:28;;;;;;;9.10;1.27;;;5.50;99.90;;;;;;5108330;28;20047;-55
2023/04/11 07:24:56;;;;;;;8.63;1.33;;;5.60;99.90;;;;;;5107038;28;20039;-56
2023/04/11 07:27:25;;;;;;;14.13;3.20;;;5.70;99.90;;;;;;5104680;28;20051;-57
2023/04/11 07:29:56;;;;;;;6.43;0.93;;;5.80;99.90;;;;;;5095268;28;20040;-57
2023/04/11 07:32:27;;;;;;;12.02;2.03;;;5.80;99.90;;;;;;5102062;28;20051;-57
2023/04/11 07:34:54;;;;;;;11.80;2.42;;;5.90;99.90;;;;;;5097726;28;20047;-57
2023/04/11 07:37:22;;;;;;;15.68;1.50;;;6.00;99.90;;;;;;5107998;28;20051;-56
2023/04/11 07:39:50;;;;;;;11.48;1.50;;;6.10;99.90;;;;;;5101707;28;20040;-55
2023/04/11 07:42:18;;;;;;;9.27;1.02;;;6.20;99.90;;;;;;5087929;28;20051;-56
2023/04/11 07:44:46;;;;;;;20.27;2.83;;;6.20;99.90;;;;;;5107044;28;20058;-55
2023/04/11 07:47:13;;;;;;;14.70;1.50;;;6.30;99.90;;;;;;5108047;28;20070;-56
2023/04/11 07:49:41;;;;;;;7.63;0.60;;;6.40;99.90;;;;;;5107834;28;20051;-55
2023/04/11 07:52:08;;;;;;;9.60;1.48;;;6.50;99.90;;;;;;5108054;28;20062;-55
2023/04/11 07:54:39;;;;;;;15.95;1.30;;;6.60;99.90;;;;;;5105606;28;20060;-56
2023/04/11 07:57:07;;;;;;;16.83;1.95;;;6.60;99.90;;;;;;5108143;28;20434;-55
2023/04/11 07:59:34;;;;;;;5.88;1.27;;;6.70;99.90;;;;;;5089137;28;20044;-57
2023/04/11 08:02:03;;;;;;;8.10;1.77;;;6.80;99.90;;;;;;5087382;28;20047;-56
2023/04/11 08:04:32;;;;;;;12.50;1.10;;;6.90;99.90;;;;;;5102901;28;20051;-57
2023/04/11 08:07:00;;;;;;;6.82;0.95;;;7.00;99.90;;;;;;5108382;28;20058;-58
2023/04/11 08:09:28;;;;;;;7.93;1.60;;;7.20;99.90;;;;;;5104915;28;20042;-58
2023/04/11 08:11:56;;;;;;;12.55;2.22;;;7.40;99.90;;;;;;5107889;28;20040;-57
2023/04/11 08:14:23;;;;;;;8.57;1.02;;;7.30;99.90;;;;;;5102430;28;20052;-56
2023/04/11 08:16:51;;;;;;;12.35;1.10;;;7.50;99.90;;;;;;5103781;28;20039;-57
2023/04/11 08:19:20;;;;;;;8.73;0.88;;;7.60;99.90;;;;;;5106820;28;20513;-56
2023/04/11 08:21:47;;;;;;;7.72;1.58;;;7.60;99.90;;;;;;5106921;28;20051;-55
2023/04/11 08:24:15;;;;;;;8.00;0.98;;;7.70;99.90;;;;;;5102216;28;20402;-55
2023/04/11 08:26:42;;;;;;;6.40;1.27;;;7.80;99.90;;;;;;5104120;28;20040;-56
2023/04/11 08:29:11;;;;;;;8.88;1.10;;;7.90;99.90;;;;;;5107812;28;20051;-55
2023/04/11 08:31:45;;;;;;;11.27;1.13;;;8.00;99.90;;;;;;5111906;28;20442;-56
2023/04/11 08:34:14;;;;;;;9.68;1.40;;;8.00;99.90;;;;;;5087335;28;20055;-54
2023/04/11 08:36:41;;;;;;;7.22;1.45;;;8.10;99.90;;;;;;5111534;28;20059;-54
2023/04/11 08:39:11;;;;;;;;;;;8.10;99.90;;;;;;5111758;28;20054;-55
2023/04/11 08:41:39;;;;;;;13.25;2.03;;;8.20;99.90;;;;;;5110436;28;19927;-55
2023/04/11 08:44:10;;;;;;;9.93;1.30;;;8.20;99.90;;;;;;5111108;28;20047;-55
2023/04/11 08:46:41;;;;;;;8.13;1.48;;;8.40;99.90;;;;;;5111500;28;20051;-56
2023/04/11 08:49:09;;;;;;;;;;;8.40;99.90;;;;;;5111451;28;20040;-55
2023/04/11 08:51:40;;;;;;;14.73;1.42;;;8.50;99.90;;;;;;5111608;28;19930;-55
2023/04/11 08:54:08;;;;;;;10.75;1.23;;;8.50;99.90;;;;;;5111212;28;20047;-55
2023/04/11 08:56:36;;;;;;;8.98;1.02;;;8.60;99.90;;;;;;5109746;28;20047;-55
2023/04/11 08:59:04;;;;;;;11.05;1.83;;;8.50;99.90;;;;;;5111008;28;20040;-55
2023/04/11 09:01:32;;;;;;;15.88;1.52;;;8.70;99.90;;;;;;5111082;28;20050;-55
2023/04/11 09:04:03;;;;;;;10.47;1.30;;;8.70;99.90;;;;;;5108138;28;20039;-55
2023/04/11 09:06:33;;;;;;;14.25;1.75;;;8.70;99.90;;;;;;5069748;28;20043;-56
2023/04/11 09:09:06;;;;;;;13.10;1.42;;;8.80;99.90;;;;;;5104790;28;20040;-56
2023/04/11 09:11:53;;;;;;;9.02;2.05;;;8.90;99.90;;;;;;5110646;28;20055;-55
2023/04/11 09:14:25;;;;;;;11.10;2.27;;;8.90;99.90;;;;;;5110937;28;20043;-56
2023/04/11 09:16:55;;;;;;;;;;;9.00;99.90;;;;;;5111384;28;20040;-54
2023/04/11 09:19:27;;;;;;;20.63;6.57;;;9.00;99.90;;;;;;5108663;28;19924;-53
2023/04/11 09:22:00;;;;;;;11.63;1.67;;;9.10;99.90;;;;;;5110894;28;20047;-55
2023/04/11 09:24:31;;;;;;;5.82;1.35;;;9.20;99.90;;;;;;5110491;28;20043;-56
2023/04/11 09:27:15;;;;;;;12.38;1.45;;;9.30;99.90;;;;;;5108845;28;20551;-55
2023/04/11 09:29:44;;;;;;;5.85;1.20;;;9.50;99.90;;;;;;5104148;28;20044;-57
2023/04/11 09:32:33;;;;;;;9.40;1.17;;;9.60;99.90;;;;;;5087535;28;20044;-56
2023/04/11 09:35:08;;;;;;;5.65;1.15;;;9.80;99.90;;;;;;5104417;28;20050;-55
2023/04/11 09:37:48;;;;;;;8.45;1.50;;;9.90;99.90;;;;;;5106913;28;20047;-55
2023/04/11 09:40:17;;;;;;;19.58;6.38;;;10.10;99.90;;;;;;5110598;28;20074;-55
2023/04/11 09:42:47;;;;;;;7.30;1.83;;;10.10;99.90;;;;;;5108960;28;20058;-55
2023/04/11 09:45:22;;;;;;;7.57;1.13;;;10.20;99.90;;;;;;5110389;28;20044;-55
2023/04/11 09:47:51;;;;;;;5.47;1.10;;;10.20;99.90;;;;;;5103362;28;20184;-55
2023/04/11 09:50:19;;;;;;;8.10;1.05;;;10.30;99.90;;;;;;5109791;28;20042;-57
2023/04/11 09:52:47;;;;;;;7.32;1.30;;;10.20;99.90;;;;;;5089772;28;20036;-56
2023/04/11 09:55:18;;;;;;;10.18;1.10;;;10.20;99.90;;;;;;5109107;28;20555;-58
2023/04/11 09:57:55;;;;;;;7.00;1.00;;;10.20;99.90;;;;;;5109880;28;20043;-56
2023/04/11 10:00:28;;;;;;;8.50;1.27;;;13.30;99.90;;;;;;5109998;28;20043;-58
2023/04/11 10:02:59;;;;;;;10.43;1.33;;;10.30;99.90;;;;;;5094676;28;20564;-58
2023/04/11 10:05:28;;;;;;;7.35;0.82;;;10.40;99.90;;;;;;5108385;28;20493;-55
2023/04/11 10:08:15;;;;;;;11.48;1.40;;;10.60;99.90;;;;;;5105018;28;20040;-57
2023/04/11 10:10:43;;;;;;;11.50;1.27;;;10.60;99.90;;;;;;5091726;28;20059;-56
2023/04/11 10:13:46;;;;;;;6.80;1.20;;;11.10;99.90;;;;;;5109364;28;20525;-57
2023/04/11 10:16:15;;;;;;;8.27;0.85;;;11.10;99.90;;;;;;5110033;28;20047;-57
2023/04/11 10:18:49;;;;;;;8.43;1.05;;;11.40;99.90;;;;;;5090708;28;20047;-56
2023/04/11 10:21:29;;;;;;;3.38;0.90;;;11.40;99.90;;;;;;5100138;28;20051;-55
2023/04/11 10:24:13;;;;;;;12.10;3.22;;;11.50;99.90;;;;;;5108048;28;20416;-56
2023/04/11 10:26:47;;;;;;;8.80;1.15;;;11.40;99.90;;;;;;5109574;28;20066;-56
2023/04/11 10:29:32;;;;;;;8.25;1.27;;;11.30;99.90;;;;;;5105558;28;20047;-57
2023/04/11 10:32:23;;;;;;;9.25;1.35;;;11.30;99.90;;;;;;5109700;28;20044;-56
2023/04/11 10:34:53;;;;;;;7.15;0.82;;;11.30;99.90;;;;;;5108895;28;20067;-58
2023/04/11 10:37:32;;;;;;;7.22;0.98;;;11.30;99.90;;;;;;5107365;28;20044;-55
2023/04/11 10:40:09;;;;;;;11.50;1.23;;;11.40;99.90;;;;;;5108097;28;20047;-55
2023/04/11 10:42:47;;;;;;;6.80;0.80;;;11.40;99.90;;;;;;5107193;28;20506;-56
2023/04/11 10:45:23;;;;;;;9.20;1.00;;;11.40;99.90;;;;;;5088523;28;20055;-57
2023/04/11 10:48:00;;;;;;;9.57;1.08;;;11.50;99.90;;;;;;5077000;28;20048;-58
2023/04/11 10:50:32;;;;;;;9.70;1.10;;;11.50;99.90;;;;;;5089455;28;20479;-57
2023/04/11 10:53:05;;;;;;;7.95;0.77;;;11.60;99.90;;;;;;5108108;28;20050;-57
2023/04/11 10:55:43;;;;;;;5.55;0.82;;;11.70;99.90;;;;;;5091169;28;20058;-57
2023/04/11 10:58:21;;;;;;;6.82;0.70;;;11.70;99.90;;;;;;5108945;28;20044;-57
2023/04/11 11:00:48;;;;;;;5.28;0.77;;;11.70;99.90;;;;;;5090910;28;20047;-58
2023/04/11 11:03:18;;;;;;;11.80;1.77;;;11.70;99.90;;;;;;5108789;28;20047;-57
2023/04/11 11:05:54;;;;;;;7.22;1.40;;;11.70;99.90;;;;;;5108333;28;20044;-58
2023/04/11 11:08:30;;;;;;;7.35;1.77;;;11.90;99.90;;;;;;5107056;28;20299;-59
2023/04/11 11:11:02;;;;;;;8.45;0.98;;;11.90;99.90;;;;;;5108764;28;20505;-58
2023/04/11 11:13:40;;;;;;;9.82;1.52;;;11.90;99.90;;;;;;5102450;28;20495;-58
2023/04/11 11:16:12;;;;;;;5.57;1.10;;;12.00;99.90;;;;;;5088556;28;20696;-59
2023/04/11 11:18:40;;;;;;;8.68;1.08;;;12.10;99.90;;;;;;5097079;28;20051;-57
2023/04/11 11:21:08;;;;;;;7.60;1.30;;;12.10;99.90;;;;;;5094870;28;20070;-58
2023/04/11 11:23:57;;;;;;;7.13;1.20;;;12.20;99.90;;;;;;5104293;28;20048;-58
2023/04/11 11:26:35;;;;;;;12.55;1.65;;;12.20;99.90;;;;;;5108455;28;20047;-55
2023/04/11 11:29:04;;;;;;;11.40;1.38;;;12.30;99.90;;;;;;5094482;28;20394;-57
2023/04/11 11:31:40;;;;;;;3.42;0.90;;;12.30;99.90;;;;;;5106935;28;20062;-56
2023/04/11 11:34:09;;;;;;;9.75;3.08;;;12.40;99.90;;;;;;5103949;28;20050;-56
2023/04/11 11:36:49;;;;;;;12.75;4.50;;;12.40;99.90;;;;;;5108084;28;20043;-57
2023/04/11 11:39:17;;;;;;;4.13;1.00;;;12.40;99.90;;;;;;5104585;28;20060;-57
2023/04/11 11:41:49;;;;;;;11.35;2.55;;;12.60;99.90;;;;;;5095867;28;20040;-56
2023/04/11 11:44:27;;;;;;;10.52;1.75;;;12.70;99.90;;;;;;5089954;28;20048;-56
2023/04/11 11:47:05;;;;;;;7.67;1.63;;;12.70;99.90;;;;;;5108446;28;20514;-58
2023/04/11 11:49:53;;;;;;;7.50;1.23;;;12.60;99.90;;;;;;5108295;28;20050;-56
2023/04/11 11:52:38;;;;;;;15.40;1.20;;;12.50;99.90;;;;;;5108004;28;20044;-57
2023/04/11 11:55:16;;;;;;;7.22;1.52;;;12.30;99.90;;;;;;5087663;28;20059;-56
2023/04/11 11:57:48;;;;;;;8.35;1.02;;;12.30;99.90;;;;;;5094909;28;20052;-57
2023/04/11 12:00:29;;;;;;;5.85;1.25;;;12.20;99.90;;;;;;5100501;28;20043;-56
2023/04/11 12:02:58;;;;;;;5.43;0.88;;;12.30;99.90;;;;;;5090383;28;20048;-56
2023/04/11 12:05:31;;;;;;;5.50;1.52;;;12.40;99.90;;;;;;5110211;28;20419;-57
2023/04/11 12:08:04;;;;;;;3.85;0.90;;;12.40;99.90;;;;;;5111737;28;20043;-58
2023/04/11 12:10:41;;;;;;;4.80;1.17;;;12.40;99.90;;;;;;5112284;28;20058;-57
2023/04/11 12:13:21;;;;;;;8.18;1.08;;;12.50;99.90;;;;;;5111912;28;20048;-57
2023/04/11 12:15:50;;;;;;;;;;;12.60;99.90;;;;;;5108612;28;20063;-55
2023/04/11 12:18:25;;;;;;;15.82;4.57;;;12.60;99.90;;;;;;5103380;28;19919;-55
2023/04/11 12:20:53;;;;;;;6.78;2.05;;;12.60;99.90;;;;;;5104823;28;20063;-58
2023/04/11 12:23:22;;;;;;;14.80;1.80;;;12.60;99.90;;;;;;5107714;28;20040;-56
2023/04/11 12:25:49;;;;;;;4.40;1.77;;;12.60;99.90;;;;;;5091511;28;20047;-57
2023/04/11 12:28:17;;;;;;;2.47;1.10;;;12.60;99.90;;;;;;5098094;28;20043;-55
2023/04/11 12:30:45;;;;;;;10.13;0.93;;;12.40;99.90;;;;;;5111604;28;20046;-56
2023/04/11 12:33:12;;;;;;;8.68;1.45;;;12.40;99.90;;;;;;5091363;28;20051;-56
2023/04/11 12:35:40;;;;;;;3.55;0.85;;;12.40;99.90;;;;;;5109620;28;20063;-56
2023/04/11 12:38:07;;;;;;;5.53;1.05;;;12.20;99.90;;;;;;5110848;28;20032;-56
2023/04/11 12:40:37;;;;;;;6.55;0.98;;;12.30;99.90;;;;;;5111753;28;20141;-56
2023/04/11 12:43:04;;;;;;;5.55;1.10;;;12.10;99.90;;;;;;5109435;28;20043;-56
2023/04/11 12:45:32;;;;;;;1.80;0.63;;;12.10;99.90;;;;;;5090875;28;20070;-57
2023/04/11 12:48:00;;;;;;;4.43;0.70;;;12.00;99.90;;;;;;5090984;28;20051;-57
2023/04/11 12:50:27;;;;;;;2.95;0.60;;;12.00;99.90;;;;;;5095961;28;20055;-57
2023/04/11 12:52:55;;;;;;;3.20;1.20;;;11.90;99.90;;;;;;5110445;28;20055;-56
2023/04/11 12:55:23;;;;;;;1.60;0.82;;;11.80;99.90;;;;;;5104433;28;20070;-56
2023/04/11 12:57:50;;;;;;;3.95;0.68;;;11.70;99.90;;;;;;5105327;28;20048;-56
2023/04/11 13:00:18;;;;;;;11.00;2.05;;;11.50;99.90;;;;;;5090849;28;20039;-57
2023/04/11 13:02:47;;;;;;;3.58;0.80;;;11.50;99.90;;;;;;5090503;28;20048;-56
2023/04/11 13:05:15;;;;;;;4.45;0.95;;;11.50;99.90;;;;;;5090588;28;20044;-55
2023/04/11 13:07:44;;;;;;;7.20;0.77;;;11.40;99.90;;;;;;5098023;28;20056;-56
2023/04/11 13:10:14;;;;;;;4.47;0.80;;;11.50;99.90;;;;;;5072468;28;20050;-55